sensor_id;sensor_type;location;lat;lon;timestamp;temperature;humidity
80743;SHT31;70142;50.894;6.052;2023-10-31T00:02:16;11.68;83.04
80743;SHT31;70142;50.894;6.052;2023-10-31T00:04:49;11.71;83.43
80743;SHT31;70142;50.894;6.052;2023-10-31T00:07:22;11.72;83.11
80743;SHT31;70142;50.894;6.052;2023-10-31T00:09:56;11.66;83.02
80743;SHT31;70142;50.894;6.052;2023-10-31T00:12:29;11.51;83.09
80743;SHT31;70142;50.894;6.052;2023-10-31T00:15:03;11.52;83.14
80743;SHT31;70142;50.894;6.052;2023-10-31T00:17:37;11.61;83.16
80743;SHT31;70142;50.894;6.052;2023-10-31T00:20:11;11.51;83.14
80743;SHT31;70142;50.894;6.052;2023-10-31T00:22:44;11.42;83.44
80743;SHT31;70142;50.894;6.052;2023-10-31T00:25:18;11.32;83.67
80743;SHT31;70142;50.894;6.052;2023-10-31T00:27:51;11.38;83.75
80743;SHT31;70142;50.894;6.052;2023-10-31T00:30:24;11.46;83.36
80743;SHT31;70142;50.894;6.052;2023-10-31T00:33:01;11.54;83.46
80743;SHT31;70142;50.894;6.052;2023-10-31T00:35:35;11.54;83.10
80743;SHT31;70142;50.894;6.052;2023-10-31T00:38:09;11.51;82.83
80743;SHT31;70142;50.894;6.052;2023-10-31T00:40:42;11.58;83.19
80743;SHT31;70142;50.894;6.052;2023-10-31T00:43:17;11.57;82.84
80743;SHT31;70142;50.894;6.052;2023-10-31T00:45:50;11.61;83.32
80743;SHT31;70142;50.894;6.052;2023-10-31T00:48:25;11.58;82.83
80743;SHT31;70142;50.894;6.052;2023-10-31T00:50:58;11.59;83.04
80743;SHT31;70142;50.894;6.052;2023-10-31T00:53:32;11.55;83.18
80743;SHT31;70142;50.894;6.052;2023-10-31T00:56:06;11.50;83.61
80743;SHT31;70142;50.894;6.052;2023-10-31T00:58:39;11.48;83.33
80743;SHT31;70142;50.894;6.052;2023-10-31T01:01:13;11.51;82.97
80743;SHT31;70142;50.894;6.052;2023-10-31T01:03:50;11.50;83.61
80743;SHT31;70142;50.894;6.052;2023-10-31T01:06:23;11.46;84.21
80743;SHT31;70142;50.894;6.052;2023-10-31T01:08:57;11.42;84.51
80743;SHT31;70142;50.894;6.052;2023-10-31T01:11:30;11.34;84.61
80743;SHT31;70142;50.894;6.052;2023-10-31T01:14:03;11.36;84.48
80743;SHT31;70142;50.894;6.052;2023-10-31T01:16:37;11.46;84.29
80743;SHT31;70142;50.894;6.052;2023-10-31T01:19:11;11.45;84.39
80743;SHT31;70142;50.894;6.052;2023-10-31T01:21:45;11.52;84.15
80743;SHT31;70142;50.894;6.052;2023-10-31T01:24:18;11.61;84.09
80743;SHT31;70142;50.894;6.052;2023-10-31T01:26:51;11.65;83.64
80743;SHT31;70142;50.894;6.052;2023-10-31T01:29:24;11.55;83.44
80743;SHT31;70142;50.894;6.052;2023-10-31T01:31:58;11.58;83.24
80743;SHT31;70142;50.894;6.052;2023-10-31T01:34:39;11.63;82.82
80743;SHT31;70142;50.894;6.052;2023-10-31T01:37:12;11.72;82.72
80743;SHT31;70142;50.894;6.052;2023-10-31T01:39:46;11.69;82.81
80743;SHT31;70142;50.894;6.052;2023-10-31T01:42:19;11.73;82.52
80743;SHT31;70142;50.894;6.052;2023-10-31T01:44:52;11.62;83.05
80743;SHT31;70142;50.894;6.052;2023-10-31T01:47:26;11.58;83.63
80743;SHT31;70142;50.894;6.052;2023-10-31T01:50:00;11.61;83.75
80743;SHT31;70142;50.894;6.052;2023-10-31T01:52:34;11.57;84.12
80743;SHT31;70142;50.894;6.052;2023-10-31T01:55:09;11.55;83.78
80743;SHT31;70142;50.894;6.052;2023-10-31T01:57:45;11.59;84.05
80743;SHT31;70142;50.894;6.052;2023-10-31T02:00:20;11.73;83.47
80743;SHT31;70142;50.894;6.052;2023-10-31T02:02:53;11.78;82.97
80743;SHT31;70142;50.894;6.052;2023-10-31T02:05:30;11.78;83.08
80743;SHT31;70142;50.894;6.052;2023-10-31T02:08:05;11.82;83.30
80743;SHT31;70142;50.894;6.052;2023-10-31T02:10:40;11.83;83.03
80743;SHT31;70142;50.894;6.052;2023-10-31T02:13:14;11.72;82.89
80743;SHT31;70142;50.894;6.052;2023-10-31T02:15:48;11.65;83.60
80743;SHT31;70142;50.894;6.052;2023-10-31T02:18:21;11.51;83.77
80743;SHT31;70142;50.894;6.052;2023-10-31T02:20:56;11.57;83.94
80743;SHT31;70142;50.894;6.052;2023-10-31T02:23:31;11.61;83.59
80743;SHT31;70142;50.894;6.052;2023-10-31T02:26:04;11.55;83.35
80743;SHT31;70142;50.894;6.052;2023-10-31T02:28:37;11.61;83.51
80743;SHT31;70142;50.894;6.052;2023-10-31T02:31:10;11.54;83.02
80743;SHT31;70142;50.894;6.052;2023-10-31T02:33:44;11.50;83.27
80743;SHT31;70142;50.894;6.052;2023-10-31T02:36:17;11.59;83.04
80743;SHT31;70142;50.894;6.052;2023-10-31T02:38:52;11.58;83.00
80743;SHT31;70142;50.894;6.052;2023-10-31T02:41:25;11.66;82.81
80743;SHT31;70142;50.894;6.052;2023-10-31T02:43:59;11.72;82.88
80743;SHT31;70142;50.894;6.052;2023-10-31T02:46:32;11.62;82.56
80743;SHT31;70142;50.894;6.052;2023-10-31T02:49:05;11.62;82.68
80743;SHT31;70142;50.894;6.052;2023-10-31T02:51:40;11.58;83.03
80743;SHT31;70142;50.894;6.052;2023-10-31T02:54:15;11.59;82.81
80743;SHT31;70142;50.894;6.052;2023-10-31T02:56:48;11.68;82.71
80743;SHT31;70142;50.894;6.052;2023-10-31T02:59:21;11.62;82.86
80743;SHT31;70142;50.894;6.052;2023-10-31T03:01:57;11.71;82.32
80743;SHT31;70142;50.894;6.052;2023-10-31T03:04:30;11.73;82.34
80743;SHT31;70142;50.894;6.052;2023-10-31T03:07:03;11.82;82.17
80743;SHT31;70142;50.894;6.052;2023-10-31T03:09:38;11.79;81.96
80743;SHT31;70142;50.894;6.052;2023-10-31T03:12:11;11.71;82.28
80743;SHT31;70142;50.894;6.052;2023-10-31T03:14:44;11.72;82.02
80743;SHT31;70142;50.894;6.052;2023-10-31T03:17:17;11.72;82.07
80743;SHT31;70142;50.894;6.052;2023-10-31T03:19:51;11.72;82.39
80743;SHT31;70142;50.894;6.052;2023-10-31T03:22:24;11.66;82.55
80743;SHT31;70142;50.894;6.052;2023-10-31T03:24:58;11.68;82.81
80743;SHT31;70142;50.894;6.052;2023-10-31T03:27:32;11.68;82.92
80743;SHT31;70142;50.894;6.052;2023-10-31T03:30:06;11.65;82.71
80743;SHT31;70142;50.894;6.052;2023-10-31T03:32:39;11.71;82.79
80743;SHT31;70142;50.894;6.052;2023-10-31T03:35:13;11.73;83.13
80743;SHT31;70142;50.894;6.052;2023-10-31T03:37:46;11.61;83.23
80743;SHT31;70142;50.894;6.052;2023-10-31T03:40:21;11.59;83.39
80743;SHT31;70142;50.894;6.052;2023-10-31T03:42:54;11.58;83.26
80743;SHT31;70142;50.894;6.052;2023-10-31T03:45:29;11.62;83.34
80743;SHT31;70142;50.894;6.052;2023-10-31T03:48:04;11.62;83.07
80743;SHT31;70142;50.894;6.052;2023-10-31T03:50:37;11.71;82.62
80743;SHT31;70142;50.894;6.052;2023-10-31T03:53:11;11.59;82.85
80743;SHT31;70142;50.894;6.052;2023-10-31T03:55:45;11.61;82.97
80743;SHT31;70142;50.894;6.052;2023-10-31T03:58:18;11.55;82.97
80743;SHT31;70142;50.894;6.052;2023-10-31T04:00:52;11.50;82.95
80743;SHT31;70142;50.894;6.052;2023-10-31T04:03:25;11.52;83.18
80743;SHT31;70142;50.894;6.052;2023-10-31T04:05:58;11.51;83.03
80743;SHT31;70142;50.894;6.052;2023-10-31T04:08:31;11.42;83.25
80743;SHT31;70142;50.894;6.052;2023-10-31T04:11:06;11.41;83.28
80743;SHT31;70142;50.894;6.052;2023-10-31T04:13:39;11.39;82.89
80743;SHT31;70142;50.894;6.052;2023-10-31T04:16:12;11.46;83.08
80743;SHT31;70142;50.894;6.052;2023-10-31T04:18:45;11.44;82.69
80743;SHT31;70142;50.894;6.052;2023-10-31T04:21:19;11.39;82.06
80743;SHT31;70142;50.894;6.052;2023-10-31T04:23:52;11.54;82.26
80743;SHT31;70142;50.894;6.052;2023-10-31T04:26:26;11.59;81.70
80743;SHT31;70142;50.894;6.052;2023-10-31T04:29:00;11.61;81.47
80743;SHT31;70142;50.894;6.052;2023-10-31T04:31:33;11.63;81.92
80743;SHT31;70142;50.894;6.052;2023-10-31T04:34:15;11.68;81.59
80743;SHT31;70142;50.894;6.052;2023-10-31T04:36:48;11.65;81.35
80743;SHT31;70142;50.894;6.052;2023-10-31T04:39:21;11.61;81.60
80743;SHT31;70142;50.894;6.052;2023-10-31T04:41:56;11.57;81.60
80743;SHT31;70142;50.894;6.052;2023-10-31T04:44:29;11.57;81.37
80743;SHT31;70142;50.894;6.052;2023-10-31T04:47:02;11.55;81.68
80743;SHT31;70142;50.894;6.052;2023-10-31T04:49:36;11.52;81.44
80743;SHT31;70142;50.894;6.052;2023-10-31T04:52:09;11.48;81.54
80743;SHT31;70142;50.894;6.052;2023-10-31T04:54:42;11.46;81.66
80743;SHT31;70142;50.894;6.052;2023-10-31T04:57:17;11.45;81.69
80743;SHT31;70142;50.894;6.052;2023-10-31T04:59:50;11.48;81.26
80743;SHT31;70142;50.894;6.052;2023-10-31T05:02:25;11.50;81.01
80743;SHT31;70142;50.894;6.052;2023-10-31T05:05:00;11.51;81.37
80743;SHT31;70142;50.894;6.052;2023-10-31T05:07:34;11.50;81.28
80743;SHT31;70142;50.894;6.052;2023-10-31T05:10:08;11.58;81.08
80743;SHT31;70142;50.894;6.052;2023-10-31T05:12:42;11.54;81.24
80743;SHT31;70142;50.894;6.052;2023-10-31T05:15:16;11.52;81.35
80743;SHT31;70142;50.894;6.052;2023-10-31T05:17:49;11.51;81.30
80743;SHT31;70142;50.894;6.052;2023-10-31T05:20:22;11.35;81.72
80743;SHT31;70142;50.894;6.052;2023-10-31T05:22:56;11.41;81.91
80743;SHT31;70142;50.894;6.052;2023-10-31T05:25:29;11.34;82.17
80743;SHT31;70142;50.894;6.052;2023-10-31T05:28:04;11.35;82.44
80743;SHT31;70142;50.894;6.052;2023-10-31T05:30:38;11.41;81.93
80743;SHT31;70142;50.894;6.052;2023-10-31T05:33:11;11.31;82.43
80743;SHT31;70142;50.894;6.052;2023-10-31T05:35:44;11.35;82.61
80743;SHT31;70142;50.894;6.052;2023-10-31T05:38:17;11.42;82.06
80743;SHT31;70142;50.894;6.052;2023-10-31T05:40:50;11.44;81.89
80743;SHT31;70142;50.894;6.052;2023-10-31T05:43:25;11.32;81.94
80743;SHT31;70142;50.894;6.052;2023-10-31T05:45:58;11.31;82.20
80743;SHT31;70142;50.894;6.052;2023-10-31T05:48:31;11.38;81.98
80743;SHT31;70142;50.894;6.052;2023-10-31T05:51:10;11.41;81.70
80743;SHT31;70142;50.894;6.052;2023-10-31T05:53:45;11.34;81.82
80743;SHT31;70142;50.894;6.052;2023-10-31T05:56:18;11.28;81.59
80743;SHT31;70142;50.894;6.052;2023-10-31T05:58:53;11.38;81.66
80743;SHT31;70142;50.894;6.052;2023-10-31T06:01:26;11.38;81.67
80743;SHT31;70142;50.894;6.052;2023-10-31T06:04:00;11.45;81.50
80743;SHT31;70142;50.894;6.052;2023-10-31T06:06:37;11.45;81.12
80743;SHT31;70142;50.894;6.052;2023-10-31T06:09:11;11.38;81.60
80743;SHT31;70142;50.894;6.052;2023-10-31T06:11:46;11.32;81.78
80743;SHT31;70142;50.894;6.052;2023-10-31T06:14:20;11.34;81.98
80743;SHT31;70142;50.894;6.052;2023-10-31T06:16:54;11.32;81.95
80743;SHT31;70142;50.894;6.052;2023-10-31T06:19:28;11.32;81.76
80743;SHT31;70142;50.894;6.052;2023-10-31T06:22:01;11.32;81.75
80743;SHT31;70142;50.894;6.052;2023-10-31T06:24:35;11.32;81.66
80743;SHT31;70142;50.894;6.052;2023-10-31T06:27:08;11.32;81.58
80743;SHT31;70142;50.894;6.052;2023-10-31T06:29:42;11.27;81.84
80743;SHT31;70142;50.894;6.052;2023-10-31T06:32:36;11.30;81.91
80743;SHT31;70142;50.894;6.052;2023-10-31T06:35:12;11.27;82.03
80743;SHT31;70142;50.894;6.052;2023-10-31T06:37:45;11.31;82.04
80743;SHT31;70142;50.894;6.052;2023-10-31T06:40:18;11.31;81.84
80743;SHT31;70142;50.894;6.052;2023-10-31T06:42:51;11.41;81.57
80743;SHT31;70142;50.894;6.052;2023-10-31T06:45:26;11.34;81.40
80743;SHT31;70142;50.894;6.052;2023-10-31T06:47:59;11.28;81.88
80743;SHT31;70142;50.894;6.052;2023-10-31T06:50:32;11.31;81.65
80743;SHT31;70142;50.894;6.052;2023-10-31T06:53:05;11.31;81.75
80743;SHT31;70142;50.894;6.052;2023-10-31T06:55:39;11.36;81.41
80743;SHT31;70142;50.894;6.052;2023-10-31T06:58:14;11.35;81.43
80743;SHT31;70142;50.894;6.052;2023-10-31T07:00:49;11.34;81.43
80743;SHT31;70142;50.894;6.052;2023-10-31T07:03:22;11.41;81.31
80743;SHT31;70142;50.894;6.052;2023-10-31T07:05:55;11.44;81.21
80743;SHT31;70142;50.894;6.052;2023-10-31T07:08:28;11.44;81.03
80743;SHT31;70142;50.894;6.052;2023-10-31T07:11:02;11.54;81.08
80743;SHT31;70142;50.894;6.052;2023-10-31T07:13:35;11.57;80.61
80743;SHT31;70142;50.894;6.052;2023-10-31T07:16:10;11.52;80.43
80743;SHT31;70142;50.894;6.052;2023-10-31T07:18:45;11.38;80.75
80743;SHT31;70142;50.894;6.052;2023-10-31T07:21:19;11.32;81.08
80743;SHT31;70142;50.894;6.052;2023-10-31T07:23:52;11.24;81.36
80743;SHT31;70142;50.894;6.052;2023-10-31T07:26:25;11.24;81.47
80743;SHT31;70142;50.894;6.052;2023-10-31T07:28:58;11.25;81.37
80743;SHT31;70142;50.894;6.052;2023-10-31T07:31:36;11.30;81.17
80743;SHT31;70142;50.894;6.052;2023-10-31T07:34:10;11.32;81.40
80743;SHT31;70142;50.894;6.052;2023-10-31T07:36:44;11.30;81.32
80743;SHT31;70142;50.894;6.052;2023-10-31T07:39:17;11.36;81.37
80743;SHT31;70142;50.894;6.052;2023-10-31T07:41:50;11.46;81.02
80743;SHT31;70142;50.894;6.052;2023-10-31T07:44:23;11.50;81.08
80743;SHT31;70142;50.894;6.052;2023-10-31T07:46:58;11.55;80.69
80743;SHT31;70142;50.894;6.052;2023-10-31T07:49:33;11.68;80.47
80743;SHT31;70142;50.894;6.052;2023-10-31T07:52:07;11.76;80.09
80743;SHT31;70142;50.894;6.052;2023-10-31T07:54:40;12.00;79.86
80743;SHT31;70142;50.894;6.052;2023-10-31T07:57:13;12.05;79.06
80743;SHT31;70142;50.894;6.052;2023-10-31T07:59:46;12.02;79.36
80743;SHT31;70142;50.894;6.052;2023-10-31T08:02:21;11.86;79.26
80743;SHT31;70142;50.894;6.052;2023-10-31T08:04:54;11.68;80.40
80743;SHT31;70142;50.894;6.052;2023-10-31T08:07:27;11.71;79.74
80743;SHT31;70142;50.894;6.052;2023-10-31T08:10:02;11.73;80.20
80743;SHT31;70142;50.894;6.052;2023-10-31T08:12:36;11.90;79.84
80743;SHT31;70142;50.894;6.052;2023-10-31T08:15:09;11.85;79.67
80743;SHT31;70142;50.894;6.052;2023-10-31T08:17:44;11.79;79.86
80743;SHT31;70142;50.894;6.052;2023-10-31T08:20:17;11.85;79.80
80743;SHT31;70142;50.894;6.052;2023-10-31T08:22:51;11.89;80.02
80743;SHT31;70142;50.894;6.052;2023-10-31T08:25:24;11.90;79.61
80743;SHT31;70142;50.894;6.052;2023-10-31T08:27:57;12.03;79.88
80743;SHT31;70142;50.894;6.052;2023-10-31T08:30:30;12.02;79.69
80743;SHT31;70142;50.894;6.052;2023-10-31T08:33:05;12.17;79.79
80743;SHT31;70142;50.894;6.052;2023-10-31T08:35:42;12.07;78.91
80743;SHT31;70142;50.894;6.052;2023-10-31T08:38:16;12.09;79.28
80743;SHT31;70142;50.894;6.052;2023-10-31T08:41:00;12.09;79.15
80743;SHT31;70142;50.894;6.052;2023-10-31T08:43:33;12.20;79.29
80743;SHT31;70142;50.894;6.052;2023-10-31T08:46:07;12.17;78.82
80743;SHT31;70142;50.894;6.052;2023-10-31T08:48:41;12.34;78.50
80743;SHT31;70142;50.894;6.052;2023-10-31T08:51:14;12.32;78.44
80743;SHT31;70142;50.894;6.052;2023-10-31T08:53:48;12.58;78.75
80743;SHT31;70142;50.894;6.052;2023-10-31T08:56:21;12.81;77.38
80743;SHT31;70142;50.894;6.052;2023-10-31T08:58:54;13.04;77.53
80743;SHT31;70142;50.894;6.052;2023-10-31T09:01:28;13.21;75.98
80743;SHT31;70142;50.894;6.052;2023-10-31T09:04:03;13.15;75.81
80743;SHT31;70142;50.894;6.052;2023-10-31T09:06:36;13.02;76.13
80743;SHT31;70142;50.894;6.052;2023-10-31T09:09:09;13.12;75.73
80743;SHT31;70142;50.894;6.052;2023-10-31T09:11:43;13.12;75.16
80743;SHT31;70142;50.894;6.052;2023-10-31T09:14:16;13.07;75.64
80743;SHT31;70142;50.894;6.052;2023-10-31T09:16:49;13.28;74.61
80743;SHT31;70142;50.894;6.052;2023-10-31T09:19:24;13.23;74.47
80743;SHT31;70142;50.894;6.052;2023-10-31T09:21:57;13.46;74.34
80743;SHT31;70142;50.894;6.052;2023-10-31T09:24:30;13.51;74.18
80743;SHT31;70142;50.894;6.052;2023-10-31T09:27:04;13.28;74.85
80743;SHT31;70142;50.894;6.052;2023-10-31T09:29:37;13.22;75.21
80743;SHT31;70142;50.894;6.052;2023-10-31T09:32:10;13.14;74.59
80743;SHT31;70142;50.894;6.052;2023-10-31T09:34:45;13.01;74.65
80743;SHT31;70142;50.894;6.052;2023-10-31T09:37:18;12.92;74.98
80743;SHT31;70142;50.894;6.052;2023-10-31T09:39:52;13.04;75.61
80743;SHT31;70142;50.894;6.052;2023-10-31T09:42:26;12.97;74.41
80743;SHT31;70142;50.894;6.052;2023-10-31T09:45:00;13.19;74.78
80743;SHT31;70142;50.894;6.052;2023-10-31T09:47:33;13.32;73.94
80743;SHT31;70142;50.894;6.052;2023-10-31T09:50:09;13.56;73.60
80743;SHT31;70142;50.894;6.052;2023-10-31T09:52:42;13.61;73.29
80743;SHT31;70142;50.894;6.052;2023-10-31T09:55:16;13.55;73.43
80743;SHT31;70142;50.894;6.052;2023-10-31T09:57:50;13.45;72.86
80743;SHT31;70142;50.894;6.052;2023-10-31T10:00:23;13.14;73.70
80743;SHT31;70142;50.894;6.052;2023-10-31T10:02:56;13.07;74.27
80743;SHT31;70142;50.894;6.052;2023-10-31T10:05:34;13.12;74.43
80743;SHT31;70142;50.894;6.052;2023-10-31T10:08:09;13.19;74.40
80743;SHT31;70142;50.894;6.052;2023-10-31T10:10:43;13.38;74.44
80743;SHT31;70142;50.894;6.052;2023-10-31T10:13:17;13.83;72.81
80743;SHT31;70142;50.894;6.052;2023-10-31T10:15:51;14.47;71.68
80743;SHT31;70142;50.894;6.052;2023-10-31T10:18:26;14.48;70.75
80743;SHT31;70142;50.894;6.052;2023-10-31T10:21:03;14.92;69.96
80743;SHT31;70142;50.894;6.052;2023-10-31T10:23:37;15.00;69.68
80743;SHT31;70142;50.894;6.052;2023-10-31T10:26:11;14.88;69.14
80743;SHT31;70142;50.894;6.052;2023-10-31T10:28:46;14.84;69.14
80743;SHT31;70142;50.894;6.052;2023-10-31T10:31:23;15.12;68.31
80743;SHT31;70142;50.894;6.052;2023-10-31T10:33:56;15.47;68.32
80743;SHT31;70142;50.894;6.052;2023-10-31T10:36:32;15.59;66.30
80743;SHT31;70142;50.894;6.052;2023-10-31T10:39:06;15.18;67.95
80743;SHT31;70142;50.894;6.052;2023-10-31T10:41:43;15.03;68.05
80743;SHT31;70142;50.894;6.052;2023-10-31T10:44:19;14.85;69.21
80743;SHT31;70142;50.894;6.052;2023-10-31T10:46:55;14.48;70.21
80743;SHT31;70142;50.894;6.052;2023-10-31T10:49:28;14.27;70.39
80743;SHT31;70142;50.894;6.052;2023-10-31T10:52:16;14.42;70.82
80743;SHT31;70142;50.894;6.052;2023-10-31T10:54:53;14.37;70.53
80743;SHT31;70142;50.894;6.052;2023-10-31T10:57:35;14.63;70.11
80743;SHT31;70142;50.894;6.052;2023-10-31T11:00:11;14.88;69.27
80743;SHT31;70142;50.894;6.052;2023-10-31T11:02:46;15.05;69.32
80743;SHT31;70142;50.894;6.052;2023-10-31T11:05:24;14.77;69.35
80743;SHT31;70142;50.894;6.052;2023-10-31T11:08:01;14.54;70.00
80743;SHT31;70142;50.894;6.052;2023-10-31T11:10:35;14.44;70.10
80743;SHT31;70142;50.894;6.052;2023-10-31T11:13:09;14.68;69.65
80743;SHT31;70142;50.894;6.052;2023-10-31T11:15:44;14.60;68.55
80743;SHT31;70142;50.894;6.052;2023-10-31T11:18:19;14.41;69.91
80743;SHT31;70142;50.894;6.052;2023-10-31T11:20:52;14.72;69.14
80743;SHT31;70142;50.894;6.052;2023-10-31T11:23:28;14.72;69.81
80743;SHT31;70142;50.894;6.052;2023-10-31T11:26:02;14.95;70.01
80743;SHT31;70142;50.894;6.052;2023-10-31T11:28:36;14.98;69.36
80743;SHT31;70142;50.894;6.052;2023-10-31T11:31:11;14.93;68.74
80743;SHT31;70142;50.894;6.052;2023-10-31T11:33:47;14.91;69.94
80743;SHT31;70142;50.894;6.052;2023-10-31T11:36:20;14.99;69.31
80743;SHT31;70142;50.894;6.052;2023-10-31T11:39:10;15.05;68.80
80743;SHT31;70142;50.894;6.052;2023-10-31T11:41:49;14.67;68.79
80743;SHT31;70142;50.894;6.052;2023-10-31T11:44:26;14.48;70.10
80743;SHT31;70142;50.894;6.052;2023-10-31T11:46:59;14.40;70.77
80743;SHT31;70142;50.894;6.052;2023-10-31T11:49:46;14.49;70.72
80743;SHT31;70142;50.894;6.052;2023-10-31T11:52:20;14.49;69.88
80743;SHT31;70142;50.894;6.052;2023-10-31T11:54:54;14.55;70.25
80743;SHT31;70142;50.894;6.052;2023-10-31T11:57:28;14.49;69.66
80743;SHT31;70142;50.894;6.052;2023-10-31T12:00:02;14.48;70.05
80743;SHT31;70142;50.894;6.052;2023-10-31T12:02:57;15.09;69.14
80743;SHT31;70142;50.894;6.052;2023-10-31T12:05:30;15.12;68.30
80743;SHT31;70142;50.894;6.052;2023-10-31T12:08:03;14.79;68.73
80743;SHT31;70142;50.894;6.052;2023-10-31T12:10:38;14.64;69.86
80743;SHT31;70142;50.894;6.052;2023-10-31T12:13:12;14.96;68.90
80743;SHT31;70142;50.894;6.052;2023-10-31T12:15:52;15.20;67.84
80743;SHT31;70142;50.894;6.052;2023-10-31T12:18:26;15.28;67.32
80743;SHT31;70142;50.894;6.052;2023-10-31T12:20:59;15.35;67.52
80743;SHT31;70142;50.894;6.052;2023-10-31T12:23:33;15.29;66.46
80743;SHT31;70142;50.894;6.052;2023-10-31T12:26:07;15.30;66.60
80743;SHT31;70142;50.894;6.052;2023-10-31T12:28:42;15.20;66.77
80743;SHT31;70142;50.894;6.052;2023-10-31T12:31:15;15.42;66.88
80743;SHT31;70142;50.894;6.052;2023-10-31T12:33:51;15.43;66.34
80743;SHT31;70142;50.894;6.052;2023-10-31T12:36:28;15.51;65.42
80743;SHT31;70142;50.894;6.052;2023-10-31T12:39:02;15.63;66.81
80743;SHT31;70142;50.894;6.052;2023-10-31T12:41:39;15.47;66.27
80743;SHT31;70142;50.894;6.052;2023-10-31T12:44:17;15.36;65.96
80743;SHT31;70142;50.894;6.052;2023-10-31T12:46:54;15.38;66.24
80743;SHT31;70142;50.894;6.052;2023-10-31T12:49:27;15.56;66.63
80743;SHT31;70142;50.894;6.052;2023-10-31T12:52:02;15.54;66.34
80743;SHT31;70142;50.894;6.052;2023-10-31T12:54:37;15.42;66.54
80743;SHT31;70142;50.894;6.052;2023-10-31T12:57:12;15.30;67.03
80743;SHT31;70142;50.894;6.052;2023-10-31T12:59:45;15.42;67.34
80743;SHT31;70142;50.894;6.052;2023-10-31T13:02:19;15.56;66.38
80743;SHT31;70142;50.894;6.052;2023-10-31T13:04:53;15.79;66.86
80743;SHT31;70142;50.894;6.052;2023-10-31T13:07:27;15.59;65.95
80743;SHT31;70142;50.894;6.052;2023-10-31T13:10:00;15.26;66.16
80743;SHT31;70142;50.894;6.052;2023-10-31T13:12:36;15.16;66.85
80743;SHT31;70142;50.894;6.052;2023-10-31T13:15:09;15.18;67.39
80743;SHT31;70142;50.894;6.052;2023-10-31T13:17:43;15.29;66.46
80743;SHT31;70142;50.894;6.052;2023-10-31T13:20:18;15.56;66.82
80743;SHT31;70142;50.894;6.052;2023-10-31T13:22:51;15.59;66.66
80743;SHT31;70142;50.894;6.052;2023-10-31T13:25:24;15.50;66.97
80743;SHT31;70142;50.894;6.052;2023-10-31T13:27:59;15.39;67.33
80743;SHT31;70142;50.894;6.052;2023-10-31T13:30:33;15.38;67.67
80743;SHT31;70142;50.894;6.052;2023-10-31T13:33:06;15.39;68.13
80743;SHT31;70142;50.894;6.052;2023-10-31T13:35:40;15.22;68.62
80743;SHT31;70142;50.894;6.052;2023-10-31T13:38:13;15.05;68.37
80743;SHT31;70142;50.894;6.052;2023-10-31T13:40:47;14.91;69.10
80743;SHT31;70142;50.894;6.052;2023-10-31T13:43:22;14.99;68.96
80743;SHT31;70142;50.894;6.052;2023-10-31T13:45:56;14.85;68.64
80743;SHT31;70142;50.894;6.052;2023-10-31T13:48:29;14.87;69.74
80743;SHT31;70142;50.894;6.052;2023-10-31T13:51:03;14.81;69.93
80743;SHT31;70142;50.894;6.052;2023-10-31T13:53:37;14.74;70.79
80743;SHT31;70142;50.894;6.052;2023-10-31T13:56:10;14.89;70.56
80743;SHT31;70142;50.894;6.052;2023-10-31T13:58:44;15.10;70.56
80743;SHT31;70142;50.894;6.052;2023-10-31T14:01:18;14.93;69.96
80743;SHT31;70142;50.894;6.052;2023-10-31T14:03:56;14.98;70.23
80743;SHT31;70142;50.894;6.052;2023-10-31T14:06:30;14.96;69.94
80743;SHT31;70142;50.894;6.052;2023-10-31T14:09:04;14.67;70.96
80743;SHT31;70142;50.894;6.052;2023-10-31T14:11:39;14.64;71.18
80743;SHT31;70142;50.894;6.052;2023-10-31T14:14:14;14.67;71.11
80743;SHT31;70142;50.894;6.052;2023-10-31T14:16:47;14.63;71.97
80743;SHT31;70142;50.894;6.052;2023-10-31T14:19:21;14.67;71.30
80743;SHT31;70142;50.894;6.052;2023-10-31T14:21:54;14.64;72.03
80743;SHT31;70142;50.894;6.052;2023-10-31T14:24:27;14.58;71.57
80743;SHT31;70142;50.894;6.052;2023-10-31T14:27:00;14.61;71.62
80743;SHT31;70142;50.894;6.052;2023-10-31T14:29:35;14.57;71.86
80743;SHT31;70142;50.894;6.052;2023-10-31T14:32:09;14.27;72.59
80743;SHT31;70142;50.894;6.052;2023-10-31T14:34:42;14.12;73.45
80743;SHT31;70142;50.894;6.052;2023-10-31T14:37:15;14.12;74.19
80743;SHT31;70142;50.894;6.052;2023-10-31T14:39:48;13.91;74.76
80743;SHT31;70142;50.894;6.052;2023-10-31T14:42:22;13.89;76.64
80743;SHT31;70142;50.894;6.052;2023-10-31T14:44:56;13.51;78.68
80743;SHT31;70142;50.894;6.052;2023-10-31T14:47:30;13.26;79.95
80743;SHT31;70142;50.894;6.052;2023-10-31T14:50:03;13.22;80.78
80743;SHT31;70142;50.894;6.052;2023-10-31T14:52:37;13.23;80.53
80743;SHT31;70142;50.894;6.052;2023-10-31T14:55:10;13.21;81.61
80743;SHT31;70142;50.894;6.052;2023-10-31T14:57:44;13.16;80.99
80743;SHT31;70142;50.894;6.052;2023-10-31T15:00:18;13.02;82.02
80743;SHT31;70142;50.894;6.052;2023-10-31T15:02:52;13.01;82.48
80743;SHT31;70142;50.894;6.052;2023-10-31T15:05:25;13.01;82.64
80743;SHT31;70142;50.894;6.052;2023-10-31T15:07:58;12.98;82.83
80743;SHT31;70142;50.894;6.052;2023-10-31T15:10:32;13.04;82.65
80743;SHT31;70142;50.894;6.052;2023-10-31T15:13:05;13.11;82.96
80743;SHT31;70142;50.894;6.052;2023-10-31T15:15:40;13.21;82.45
80743;SHT31;70142;50.894;6.052;2023-10-31T15:18:13;13.25;82.72
80743;SHT31;70142;50.894;6.052;2023-10-31T15:20:47;13.25;82.69
80743;SHT31;70142;50.894;6.052;2023-10-31T15:23:20;13.36;82.20
80743;SHT31;70142;50.894;6.052;2023-10-31T15:25:53;13.21;81.96
80743;SHT31;70142;50.894;6.052;2023-10-31T15:28:28;13.16;82.13
80743;SHT31;70142;50.894;6.052;2023-10-31T15:31:04;13.14;82.52
80743;SHT31;70142;50.894;6.052;2023-10-31T15:33:37;13.09;81.87
80743;SHT31;70142;50.894;6.052;2023-10-31T15:36:13;13.18;82.51
80743;SHT31;70142;50.894;6.052;2023-10-31T15:38:47;13.16;82.51
80743;SHT31;70142;50.894;6.052;2023-10-31T15:41:22;13.16;82.48
80743;SHT31;70142;50.894;6.052;2023-10-31T15:43:56;13.04;82.18
80743;SHT31;70142;50.894;6.052;2023-10-31T15:46:32;13.11;82.68
80743;SHT31;70142;50.894;6.052;2023-10-31T15:49:07;13.12;82.44
80743;SHT31;70142;50.894;6.052;2023-10-31T15:51:40;13.12;82.54
80743;SHT31;70142;50.894;6.052;2023-10-31T15:54:13;13.08;82.38
80743;SHT31;70142;50.894;6.052;2023-10-31T15:56:47;13.04;83.12
80743;SHT31;70142;50.894;6.052;2023-10-31T15:59:20;13.05;82.77
80743;SHT31;70142;50.894;6.052;2023-10-31T16:01:55;13.01;82.65
80743;SHT31;70142;50.894;6.052;2023-10-31T16:04:28;12.87;82.55
80743;SHT31;70142;50.894;6.052;2023-10-31T16:07:01;12.94;82.80
80743;SHT31;70142;50.894;6.052;2023-10-31T16:09:35;12.92;82.73
80743;SHT31;70142;50.894;6.052;2023-10-31T16:12:08;12.87;82.86
80743;SHT31;70142;50.894;6.052;2023-10-31T16:14:42;12.92;83.14